Time;durP1;ratioP1;P1;durP2;ratioP2;P2;SDS_P1;SDS_P2;PMS_P1;PMS_P2;Temp;Humidity;BMP_temperature;BMP_pressure;BME280_temperature;BME280_humidity;BME280_pressure;Samples;Min_cycle;Max_cycle;Signal;HPM_P1;HPM_P2
2022/11/13 00:01:44;;;;;;;;;54.50;43.75;;;;;12.10;83.06;101841.19;5071017;27;45569;-59
2022/11/13 00:04:09;;;;;;;;;62.75;47.25;;;;;12.09;83.96;101837.66;5072089;27;45617;-68
2022/11/13 00:06:35;;;;;;;;;61.25;48.75;;;;;12.18;82.63;101844.41;5057567;27;46173;-62
2022/11/13 00:09:00;;;;;;;;;58.75;48.25;;;;;12.10;82.77;101847.38;5078044;27;45459;-61
2022/11/13 00:11:26;;;;;;;;;61.25;51.75;;;;;12.10;82.72;101851.84;5076501;27;45470;-61
2022/11/13 00:13:51;;;;;;;;;62.25;48.75;;;;;12.00;83.16;101835.41;5062435;28;45504;-65
2022/11/13 00:16:19;;;;;;;;;55.25;44.25;;;;;12.06;82.93;101842.25;5057130;28;45656;-65
2022/11/13 00:18:49;;;;;;;;;61.50;49.50;;;;;12.05;83.42;101837.88;5058295;28;45584;-59
2022/11/13 00:21:21;;;;;;;;;60.50;48.75;;;;;12.05;82.94;101837.88;5057693;28;45247;-61
2022/11/13 00:23:47;;;;;;;;;59.00;48.00;;;;;12.06;83.10;101839.59;5039423;28;45356;-67
2022/11/13 00:26:19;;;;;;;;;56.00;45.25;;;;;12.06;82.77;101840.47;5056901;28;46178;-60
2022/11/13 00:28:44;;;;;;;;;63.00;51.25;;;;;12.03;82.96;101837.06;5056967;28;45344;-62
2022/11/13 00:31:14;;;;;;;;;55.75;45.00;;;;;11.99;83.08;101824.81;5058728;28;46987;-61
2022/11/13 00:33:39;;;;;;;;;59.25;48.75;;;;;11.94;83.24;101824.13;5078026;27;45573;-59
2022/11/13 00:36:14;;;;;;;;;60.50;49.00;;;;;11.89;83.44;101821.66;5054478;28;46239;-64
2022/11/13 00:38:39;;;;;;;;;58.50;48.00;;;;;11.87;83.56;101827.97;5057529;28;45300;-60
2022/11/13 00:41:05;;;;;;;;;60.50;47.50;;;;;11.81;83.57;101821.97;5057103;28;45401;-56
2022/11/13 00:43:30;;;;;;;;;63.25;50.00;;;;;11.66;83.85;101803.91;5057527;28;45545;-61
2022/11/13 00:45:56;;;;;;;;;60.75;51.25;;;;;11.60;84.09;101800.66;5056536;28;46284;-63
2022/11/13 00:48:22;;;;;;;;;55.75;43.00;;;;;11.59;84.22;101823.75;5038762;28;45362;-59
2022/11/13 00:50:48;;;;;;;;;68.50;53.00;;;;;11.53;84.49;101814.19;5059901;28;45845;-57
2022/11/13 00:53:14;;;;;;;;;64.25;53.00;;;;;11.51;84.35;101817.88;5070660;27;46271;-65
2022/11/13 00:55:42;;;;;;;;;67.00;54.00;;;;;11.51;84.27;101807.22;5057587;28;45379;-65
2022/11/13 00:58:07;;;;;;;;;76.75;58.75;;;;;11.53;84.23;101800.00;5038922;28;45305;-67
2022/11/13 01:00:32;;;;;;;;;69.50;53.00;;;;;11.50;83.69;101794.81;5038913;28;45698;-68
2022/11/13 01:02:58;;;;;;;;;72.25;58.00;;;;;11.54;83.62;101799.09;5039159;28;45417;-67
2022/11/13 01:05:24;;;;;;;;;73.75;58.00;;;;;11.51;83.49;101783.22;5056987;28;46261;-61
2022/11/13 01:07:49;;;;;;;;;73.75;56.00;;;;;11.56;83.06;101793.69;5057065;28;45231;-67
2022/11/13 01:10:15;;;;;;;;;73.75;58.50;;;;;11.56;83.13;101789.22;5061558;28;45235;-64
2022/11/13 01:12:40;;;;;;;;;73.00;57.00;;;;;11.55;82.40;101782.16;5077365;27;45585;-60
2022/11/13 01:15:06;;;;;;;;;72.00;55.75;;;;;11.53;82.67;101770.72;5076726;28;45286;-61
2022/11/13 01:17:32;;;;;;;;;61.75;49.50;;;;;11.49;82.92;101769.13;5075908;27;45538;-68
2022/11/13 01:19:57;;;;;;;;;64.25;50.00;;;;;11.44;82.81;101755.97;5076840;28;46028;-64
2022/11/13 01:22:22;;;;;;;;;61.00;49.75;;;;;11.44;82.64;101755.97;5057615;28;45420;-64
2022/11/13 01:24:48;;;;;;;;;59.50;47.50;;;;;11.42;83.04;101759.63;5076569;27;45355;-73
2022/11/13 01:27:14;;;;;;;;;60.25;50.00;;;;;11.43;82.74;101759.56;5075377;28;45391;-70
2022/11/13 01:29:40;;;;;;;;;60.50;50.00;;;;;11.39;82.51;101751.75;5075977;27;45287;-66
2022/11/13 01:32:06;;;;;;;;;57.25;47.50;;;;;11.41;82.49;101749.91;5076626;28;45464;-62
2022/11/13 01:34:31;;;;;;;;;42.25;38.75;;;;;11.37;82.89;101740.31;5075853;28;46404;-64
2022/11/13 01:36:56;;;;;;;;;55.50;43.50;;;;;11.41;82.56;101760.56;5076237;28;45323;-65
2022/11/13 01:39:22;;;;;;;;;56.50;45.00;;;;;11.40;82.34;101757.03;5076163;28;45260;-58
2022/11/13 01:41:47;;;;;;;;;49.50;43.00;;;;;11.36;82.67;101749.22;5076801;28;45333;-62
2022/11/13 01:44:15;;;;;;;;;52.00;44.00;;;;;11.37;82.83;101751.84;5073223;28;45463;-64
2022/11/13 01:46:54;;;;;;;;;50.00;39.50;;;;;11.37;82.90;101754.50;5076640;27;45462;-65
2022/11/13 01:49:25;;;;;;;;;45.25;40.75;;;;;11.35;83.03;101745.72;5075991;28;45318;-57
2022/11/13 01:52:24;;;;;;;;;47.75;40.00;;;;;11.27;82.45;101739.81;5075712;27;45350;-63
2022/11/13 01:54:54;;;;;;;;;38.00;36.50;;;;;11.32;82.81;101751.13;5047381;28;45622;-60
2022/11/13 01:57:21;;;;;;;;;40.00;35.50;;;;;11.30;82.92;101746.81;5076398;28;45383;-62
2022/11/13 01:59:50;;;;;;;;;38.50;33.50;;;;;11.29;83.08;101743.28;5076488;28;45445;-62
2022/11/13 02:02:15;;;;;;;;;37.75;36.50;;;;;11.28;82.68;101738.00;5062874;28;45461;-62
2022/11/13 02:04:41;;;;;;;;;8.25;7.00;;;;;11.21;82.82;101732.94;5074012;27;45555;-70
2022/11/13 02:07:10;;;;;;;;;36.25;34.50;;;;;11.22;83.14;101734.69;5079701;27;45507;-63
2022/11/13 02:09:40;;;;;;;;;38.50;36.25;;;;;11.21;83.08;101722.31;5079371;28;45421;-66
2022/11/13 02:12:09;;;;;;;;;39.75;35.75;;;;;11.18;83.51;101725.06;5061275;28;45511;-66
2022/11/13 02:14:38;;;;;;;;;31.00;31.00;;;;;11.19;82.90;101720.59;5079461;27;45342;-68
2022/11/13 02:17:07;;;;;;;;;37.00;33.75;;;;;11.18;83.11;101709.09;5067086;27;45433;-64
2022/11/13 02:19:39;;;;;;;;;35.00;32.50;;;;;11.17;83.05;101712.69;5068978;27;45355;-68
2022/11/13 02:22:35;;;;;;;;;33.75;26.25;;;;;11.13;83.51;101726.19;5077626;27;45390;-66
2022/11/13 02:25:02;;;;;;;;;34.00;32.50;;;;;11.12;83.02;101728.00;5068140;27;45772;-68
2022/11/13 02:27:43;;;;;;;;;36.00;30.50;;;;;11.09;83.22;101716.59;5078369;27;45335;-63
2022/11/13 02:30:11;;;;;;;;;33.25;32.00;;;;;11.07;83.29;101729.13;5070542;27;45425;-70
2022/11/13 02:32:42;;;;;;;;;32.00;32.00;;;;;11.06;83.38;101720.22;5070279;27;45239;-61
2022/11/13 02:35:08;;;;;;;;;30.00;29.25;;;;;11.05;83.62;101713.19;5060203;27;45566;-60
2022/11/13 02:37:33;;;;;;;;;36.00;33.00;;;;;11.06;83.05;101706.91;5060250;28;45466;-65
2022/11/13 02:39:59;;;;;;;;;30.00;29.25;;;;;11.01;83.50;101714.25;5060102;27;45419;-62
2022/11/13 02:42:24;;;;;;;;;43.50;36.25;;;;;10.83;83.72;101672.41;5047891;28;45441;-59
2022/11/13 02:44:50;;;;;;;;;48.50;38.50;;;;;11.01;83.71;101702.72;5077592;27;46937;-59
2022/11/13 02:47:15;;;;;;;;;47.75;38.50;;;;;11.00;83.66;101701.84;5079773;28;45464;-57
2022/11/13 02:49:40;;;;;;;;;38.00;33.25;;;;;11.00;83.78;101696.53;5058494;27;47302;-64
2022/11/13 02:52:06;;;;;;;;;38.50;36.50;;;;;11.00;83.18;101695.66;5065951;27;45356;-62
2022/11/13 02:54:31;;;;;;;;;41.75;37.00;;;;;10.95;83.27;101701.19;5066074;28;46405;-60
2022/11/13 02:56:56;;;;;;;;;53.50;38.25;;;;;10.94;83.43;101702.13;5079231;27;45265;-60
2022/11/13 02:59:22;;;;;;;;;47.75;36.50;;;;;10.90;83.00;101692.50;5078330;28;45263;-63
2022/11/13 03:01:47;;;;;;;;;36.25;33.50;;;;;10.85;83.73;101686.50;5079731;28;45385;-58
2022/11/13 03:04:12;;;;;;;;;45.25;38.00;;;;;10.85;83.27;101702.47;5078932;28;45266;-58
2022/11/13 03:06:38;;;;;;;;;52.75;43.25;;;;;10.79;83.31;101708.03;5077914;28;45241;-58
2022/11/13 03:09:03;;;;;;;;;47.75;43.00;;;;;10.73;83.60;101708.28;5077876;27;45326;-63
2022/11/13 03:11:29;;;;;;;;;60.75;49.25;;;;;10.73;84.42;101709.13;5078934;27;45267;-66
2022/11/13 03:13:54;;;;;;;;;54.75;47.00;;;;;10.69;84.23;101706.66;5077313;27;45265;-61
2022/11/13 03:16:20;;;;;;;;;60.00;43.50;;;;;10.68;83.66;101696.94;5079026;27;45247;-67
2022/11/13 03:18:45;;;;;;;;;67.75;54.00;;;;;10.61;84.03;101704.28;5078390;27;45257;-66
2022/11/13 03:21:13;;;;;;;;;65.75;49.25;;;;;10.58;84.07;101693.78;5070139;27;45940;-67
2022/11/13 03:23:40;;;;;;;;;76.00;56.75;;;;;10.58;83.89;101699.97;5065327;27;45541;-63
2022/11/13 03:26:09;;;;;;;;;75.75;57.00;;;;;10.67;84.04;101708.50;5061855;27;45486;-62
2022/11/13 03:28:35;;;;;;;;;70.50;54.00;;;;;10.63;84.14;101708.63;5062726;27;45242;-66
2022/11/13 03:31:01;;;;;;;;;67.25;53.25;;;;;10.60;84.22;101697.25;5077551;27;45264;-64
2022/11/13 03:33:27;;;;;;;;;58.50;49.00;;;;;10.62;84.21;101704.22;5077364;27;45687;-65
2022/11/13 03:35:52;;;;;;;;;64.75;47.75;;;;;10.62;83.56;101690.94;5065691;27;45470;-61
2022/11/13 03:38:18;;;;;;;;;61.75;49.00;;;;;10.61;83.65;101691.84;5067815;27;45328;-63
2022/11/13 03:40:43;;;;;;;;;46.00;42.50;;;;;10.57;83.45;101678.75;5077217;27;45628;-62
2022/11/13 03:43:08;;;;;;;;;56.00;44.25;;;;;10.60;83.02;101687.47;5078310;27;46070;-63
2022/11/13 03:45:34;;;;;;;;;48.50;41.75;;;;;10.58;83.20;101686.66;5066140;27;45418;-60
2022/11/13 03:47:59;;;;;;;;;46.50;41.00;;;;;10.57;82.41;101676.09;5079349;28;45442;-61
2022/11/13 03:50:25;;;;;;;;;44.50;38.25;;;;;10.49;82.70;101683.47;5072868;27;45489;-64
2022/11/13 03:52:51;;;;;;;;;38.50;36.75;;;;;10.40;82.86;101684.69;5075671;27;46410;-65
2022/11/13 03:55:17;;;;;;;;;39.25;38.00;;;;;10.43;82.43;101679.28;5076711;27;45556;-67
2022/11/13 03:57:42;;;;;;;;;47.50;37.25;;;;;10.42;83.06;101677.53;5075766;27;45443;-65
2022/11/13 04:00:08;;;;;;;;;38.25;32.50;;;;;10.36;82.39;101669.78;5060209;27;45204;-65
2022/11/13 04:02:34;;;;;;;;;47.50;37.25;;;;;10.30;82.75;101667.38;5081120;27;46169;-64
2022/11/13 04:04:59;;;;;;;;;34.50;31.00;;;;;10.28;82.66;101663.88;5074344;27;45430;-67
2022/11/13 04:07:25;;;;;;;;;43.50;36.50;;;;;10.25;82.54;101664.00;5076954;27;45198;-67
2022/11/13 04:09:50;;;;;;;;;40.25;33.75;;;;;10.25;83.31;101671.97;5064152;27;45473;-63
2022/11/13 04:12:15;;;;;;;;;40.50;36.00;;;;;10.18;82.90;101679.28;5076905;28;46042;-60
2022/11/13 04:14:41;;;;;;;;;39.75;33.25;;;;;10.13;82.89;101675.91;5076013;27;55637;-59
2022/11/13 04:17:06;;;;;;;;;43.00;35.25;;;;;10.17;82.96;101672.25;5057711;27;45358;-62
2022/11/13 04:19:31;;;;;;;;;42.50;34.00;;;;;10.19;81.92;101673.06;5075498;27;45194;-65
2022/11/13 04:21:57;;;;;;;;;39.25;35.00;;;;;10.01;83.02;101655.97;5058827;27;46337;-62
2022/11/13 04:24:22;;;;;;;;;41.50;34.00;;;;;10.01;82.43;101677.22;5042674;28;45525;-66
2022/11/13 04:26:47;;;;;;;;;35.75;32.50;;;;;9.97;82.83;101659.69;5076852;27;45525;-65
2022/11/13 04:29:13;;;;;;;;;37.75;33.00;;;;;9.99;82.79;101668.44;5072758;27;45537;-63
2022/11/13 04:31:38;;;;;;;;;30.50;28.25;;;;;9.95;82.83;101672.16;5074875;27;45874;-67
2022/11/13 04:34:04;;;;;;;;;28.50;26.75;;;;;9.88;83.00;101673.28;5056002;28;45357;-61
2022/11/13 04:36:29;;;;;;;;;35.50;32.75;;;;;9.89;82.82;101664.38;5073028;27;45536;-58
2022/11/13 04:38:55;;;;;;;;;31.50;31.50;;;;;9.92;82.89;101669.63;5059581;28;45487;-65
2022/11/13 04:44:04;;;;;;;;;27.00;26.25;;;;;9.88;82.54;101673.28;5072477;27;45304;-61
2022/11/13 04:46:29;;;;;;;;;30.00;30.00;;;;;9.84;82.28;101657.53;5042320;28;45540;-66
2022/11/13 04:48:55;;;;;;;;;31.25;31.25;;;;;9.79;82.31;101662.16;5057478;28;45317;-64
2022/11/13 04:51:20;;;;;;;;;33.75;30.25;;;;;9.84;82.75;101662.84;5051669;28;46575;-62
2022/11/13 04:53:46;;;;;;;;;31.00;28.25;;;;;9.79;82.42;101644.41;5077134;28;45444;-68
2022/11/13 04:56:11;;;;;;;;;27.00;21.50;;;;;9.79;82.34;101643.53;5075200;27;45738;-68
2022/11/13 04:58:36;;;;;;;;;25.75;23.75;;;;;9.90;82.97;101652.00;5077157;28;45316;-65
2022/11/13 05:01:03;;;;;;;;;34.75;25.50;;;;;9.90;81.92;101652.00;5076845;28;45421;-61
2022/11/13 05:03:28;;;;;;;;;29.50;25.50;;;;;9.90;82.27;101655.53;5076503;27;45458;-60
2022/11/13 05:06:04;;;;;;;;;37.75;27.75;;;;;9.90;82.28;101659.97;5077099;28;45311;-59
2022/11/13 05:08:29;;;;;;;;;31.00;25.75;;;;;9.87;82.84;101658.25;5068442;27;45347;-57
2022/11/13 05:10:55;;;;;;;;;25.25;25.25;;;;;9.91;82.17;101659.91;5056246;28;45527;-62
2022/11/13 05:13:20;;;;;;;;;29.75;27.25;;;;;9.87;82.28;101646.78;5069050;28;45161;-59
2022/11/13 05:15:45;;;;;;;;;29.75;27.75;;;;;9.84;81.78;101645.09;5075510;28;45655;-58
2022/11/13 05:18:11;;;;;;;;;31.25;25.25;;;;;9.82;82.73;101646.09;5075803;28;45598;-57
2022/11/13 05:20:36;;;;;;;;;26.00;25.00;;;;;9.84;81.40;101638.94;5076531;28;45339;-62
2022/11/13 05:23:01;;;;;;;;;33.50;29.75;;;;;9.76;81.83;101628.56;5075576;27;45345;-57
2022/11/13 05:25:27;;;;;;;;;29.75;24.00;;;;;9.79;82.76;101639.09;5076141;28;45438;-58
2022/11/13 05:27:52;;;;;;;;;29.00;29.00;;;;;9.74;83.03;101638.38;5077611;28;45449;-60
2022/11/13 05:30:18;;;;;;;;;30.25;29.75;;;;;9.71;83.59;101636.72;5063625;27;45402;-61
2022/11/13 05:32:43;;;;;;;;;32.75;30.00;;;;;9.73;83.17;101650.78;5076387;28;45416;-61
2022/11/13 05:35:09;;;;;;;;;33.75;30.25;;;;;9.71;83.43;101646.47;5065505;27;45462;-65
2022/11/13 05:37:34;;;;;;;;;29.00;28.25;;;;;9.71;83.17;101641.16;5060900;27;45509;-60
2022/11/13 05:40:00;;;;;;;;;35.50;30.50;;;;;9.74;82.06;101647.22;5072542;27;46141;-58
2022/11/13 05:42:25;;;;;;;;;34.25;30.00;;;;;9.68;83.11;101636.81;5068912;27;45493;-59
2022/11/13 05:44:50;;;;;;;;;33.25;30.00;;;;;9.68;82.64;101642.13;5077136;27;45374;-67
2022/11/13 05:47:15;;;;;;;;;35.75;29.75;;;;;9.66;83.08;101632.50;5058706;28;45519;-65
2022/11/13 05:49:41;;;;;;;;;27.00;24.75;;;;;9.63;82.73;101616.63;5071748;27;45330;-61
2022/11/13 05:52:06;;;;;;;;;23.50;22.25;;;;;9.70;81.76;101628.78;5070574;27;45422;-58
2022/11/13 05:54:32;;;;;;;;;28.50;22.75;;;;;9.62;82.65;101621.09;5063304;27;45636;-66
2022/11/13 05:56:57;;;;;;;;;30.75;24.00;;;;;9.61;82.18;101618.50;5059929;28;45227;-59
2022/11/13 05:59:22;;;;;;;;;27.00;23.25;;;;;9.56;82.21;101607.19;5064170;27;46073;-63
2022/11/13 06:01:48;;;;;;;;;23.50;23.50;;;;;9.55;82.07;101605.44;5073826;27;45964;-57
2022/11/13 06:04:13;;;;;;;;;22.00;20.75;;;;;9.57;83.16;101606.25;5075057;27;45243;-61
2022/11/13 06:06:39;;;;;;;;;25.00;25.00;;;;;9.57;82.65;101595.63;5066758;27;45202;-62
2022/11/13 06:09:05;;;;;;;;;31.25;26.25;;;;;9.57;82.33;101606.25;5073446;27;46532;-57
2022/11/13 06:11:31;;;;;;;;;25.50;24.50;;;;;9.55;82.64;101598.34;5060422;27;46537;-57
2022/11/13 06:13:58;;;;;;;;;28.00;25.75;;;;;9.54;82.12;101601.06;5079090;27;45441;-58
2022/11/13 06:16:29;;;;;;;;;17.25;13.25;;;;;9.51;82.21;101598.53;5062568;27;45331;-59
2022/11/13 06:18:56;;;;;;;;;31.75;27.50;;;;;9.40;82.29;101590.94;5079035;28;45461;-58
2022/11/13 06:21:25;;;;;;;;;30.75;25.25;;;;;9.34;82.56;101585.81;5060143;28;45492;-57
2022/11/13 06:23:50;;;;;;;;;18.75;15.00;;;;;9.30;83.70;101589.50;5059203;28;45505;-57
2022/11/13 06:26:29;;;;;;;;;27.25;24.50;;;;;9.28;83.97;101586.91;5061139;28;45450;-60
2022/11/13 06:28:54;;;;;;;;;29.75;26.50;;;;;9.29;83.63;101575.38;5080780;27;45417;-56
2022/11/13 06:31:25;;;;;;;;;26.25;23.00;;;;;9.38;82.56;101585.69;5067387;27;45499;-65
2022/11/13 06:33:51;;;;;;;;;26.75;25.25;;;;;9.35;83.16;101577.78;5062284;27;45403;-57
2022/11/13 06:36:22;;;;;;;;;24.25;22.50;;;;;9.34;83.25;101572.53;5079275;27;45390;-68
2022/11/13 06:38:48;;;;;;;;;30.50;28.50;;;;;9.34;83.39;101569.88;5071490;27;45711;-62
2022/11/13 06:41:17;;;;;;;;;32.00;29.75;;;;;9.32;83.60;101575.25;5073942;27;45348;-60
2022/11/13 06:43:43;;;;;;;;;35.75;30.00;;;;;9.29;82.72;101570.06;5066805;27;45256;-61
2022/11/13 06:46:14;;;;;;;;;28.00;25.25;;;;;9.24;83.77;101566.69;5080022;27;45255;-63
2022/11/13 06:48:40;;;;;;;;;30.25;25.50;;;;;9.23;83.09;101564.09;5076358;27;45493;-60
2022/11/13 06:51:08;;;;;;;;;31.00;28.00;;;;;9.29;83.01;101567.41;5081663;27;45391;-58
2022/11/13 06:53:34;;;;;;;;;32.75;28.75;;;;;9.27;83.77;101563.06;5065450;27;46045;-60
2022/11/13 06:56:00;;;;;;;;;34.75;30.75;;;;;9.30;83.66;101576.25;5078773;27;45453;-62
2022/11/13 06:58:26;;;;;;;;;39.75;29.50;;;;;9.25;83.78;101568.44;5060163;28;46070;-56
2022/11/13 07:00:52;;;;;;;;;26.25;24.00;;;;;9.23;83.96;101572.91;5078973;27;45439;-58
2022/11/13 07:03:24;;;;;;;;;39.75;33.75;;;;;9.23;83.62;101567.59;5077387;27;45688;-61
2022/11/13 07:05:50;;;;;;;;;20.75;17.25;;;;;9.26;82.86;101571.97;5078979;28;45448;-62
2022/11/13 07:08:16;;;;;;;;;24.75;24.75;;;;;9.22;83.13;101573.84;5058546;27;46079;-64
2022/11/13 07:10:43;;;;;;;;;45.75;34.50;;;;;9.19;83.53;101568.66;5074120;27;45477;-56
2022/11/13 07:13:09;;;;;;;;;46.00;35.00;;;;;9.09;84.50;101569.88;5078515;27;45793;-59
2022/11/13 07:15:38;;;;;;;;;33.00;27.75;;;;;9.15;84.43;101567.03;5063319;27;45259;-61
2022/11/13 07:18:05;;;;;;;;;29.25;25.75;;;;;9.19;83.58;101568.66;5058222;28;45432;-62
2022/11/13 07:20:32;;;;;;;;;37.25;31.50;;;;;9.20;83.84;101565.06;5063846;27;45782;-58
2022/11/13 07:22:59;;;;;;;;;45.50;40.25;;;;;9.21;83.96;101550.88;5058117;28;45378;-63
2022/11/13 07:25:26;;;;;;;;;33.50;28.75;;;;;9.31;83.65;101570.88;5061114;27;45505;-60
2022/11/13 07:27:51;;;;;;;;;35.25;33.25;;;;;9.26;83.62;101548.06;5077996;27;45507;-63
2022/11/13 07:30:18;;;;;;;;;37.25;32.25;;;;;9.39;83.69;101560.84;5059486;27;45509;-58
2022/11/13 07:32:43;;;;;;;;;26.50;26.50;;;;;9.41;83.47;101564.31;5074913;27;45377;-61
2022/11/13 07:35:09;;;;;;;;;33.25;31.25;;;;;9.44;83.87;101568.66;5066366;27;45378;-58
2022/11/13 07:37:35;;;;;;;;;35.25;27.75;;;;;9.44;83.91;101572.16;5061477;27;46688;-68
2022/11/13 07:40:00;;;;;;;;;35.75;31.50;;;;;9.51;84.07;101574.63;5077790;27;45505;-68
2022/11/13 07:42:26;;;;;;;;;33.25;28.50;;;;;9.55;83.07;101576.22;5072846;27;45408;-60
2022/11/13 07:44:51;;;;;;;;;39.25;34.75;;;;;9.48;83.13;101545.50;5065866;28;45288;-62
2022/11/13 07:47:17;;;;;;;;;31.25;28.00;;;;;9.59;82.54;101553.94;5068556;27;45873;-57
2022/11/13 07:49:42;;;;;;;;;32.50;30.75;;;;;9.66;82.74;101548.38;5069921;27;45484;-57
2022/11/13 07:52:07;;;;;;;;;36.00;29.00;;;;;9.74;83.44;101542.75;5073343;27;45650;-59
2022/11/13 07:54:33;;;;;;;;;32.75;30.75;;;;;9.78;83.20;101547.03;5071212;27;45527;-57
2022/11/13 07:56:58;;;;;;;;;29.50;27.00;;;;;9.86;82.12;101547.59;5063767;27;45474;-66
2022/11/13 07:59:24;;;;;;;;;37.75;31.00;;;;;9.94;81.91;101548.19;5067995;27;45493;-60
2022/11/13 08:01:50;;;;;;;;;32.75;28.75;;;;;10.00;81.81;101541.75;5073366;27;45926;-63
2022/11/13 08:04:15;;;;;;;;;30.00;30.00;;;;;10.05;81.74;101547.78;5061736;28;45639;-60
2022/11/13 08:06:40;;;;;;;;;36.50;33.25;;;;;10.13;82.31;101547.47;5056716;28;46302;-65
2022/11/13 08:09:06;;;;;;;;;38.25;34.75;;;;;10.12;81.28;101524.47;5056666;28;45453;-62
2022/11/13 08:11:31;;;;;;;;;40.00;34.25;;;;;10.23;81.32;101527.63;5071534;28;45321;-67
2022/11/13 08:13:57;;;;;;;;;36.00;34.75;;;;;10.35;80.85;101537.75;5066320;27;45856;-65
2022/11/13 08:16:22;;;;;;;;;37.25;34.50;;;;;10.40;80.52;101534.91;5074685;27;45905;-61
2022/11/13 08:18:49;;;;;;;;;31.00;29.25;;;;;10.40;80.36;101530.44;5076920;28;45358;-59
2022/11/13 08:21:14;;;;;;;;;39.00;35.50;;;;;10.49;80.61;101530.09;5079628;27;45247;-66
2022/11/13 08:23:41;;;;;;;;;27.25;26.00;;;;;10.55;80.16;101529.00;5059761;28;45573;-57
2022/11/13 08:26:08;;;;;;;;;32.50;30.50;;;;;10.56;80.61;101526.25;5077113;28;45645;-56
2022/11/13 08:28:35;;;;;;;;;36.00;34.75;;;;;10.57;80.03;101525.34;5076958;28;45370;-56
2022/11/13 08:31:01;;;;;;;;;31.75;31.00;;;;;10.62;80.04;101526.00;5075737;27;45300;-60
2022/11/13 08:33:27;;;;;;;;;31.00;28.00;;;;;10.64;79.87;101518.81;5066665;27;45848;-59
2022/11/13 08:35:58;;;;;;;;;39.25;32.50;;;;;10.72;79.32;101520.31;5056479;28;45359;-64
2022/11/13 08:38:24;;;;;;;;;31.50;31.25;;;;;10.74;78.96;101506.00;5056467;28;45450;-60
2022/11/13 08:40:49;;;;;;;;;37.25;30.50;;;;;10.78;79.07;101514.72;5055961;28;45469;-67
2022/11/13 08:43:15;;;;;;;;;28.50;28.50;;;;;10.80;79.19;101502.19;5038613;28;45850;-64
2022/11/13 08:45:41;;;;;;;;;28.25;23.00;;;;;10.83;79.07;101502.09;5043760;27;47186;-58
2022/11/13 08:48:08;;;;;;;;;23.00;21.75;;;;;10.86;79.19;101505.47;5072295;28;45315;-60
2022/11/13 08:50:33;;;;;;;;;32.50;27.50;;;;;10.91;78.93;101494.63;5073654;28;45435;-64
2022/11/13 08:53:00;;;;;;;;;34.75;29.25;;;;;10.98;78.60;101496.09;5056385;28;45544;-70
2022/11/13 08:55:26;;;;;;;;;29.50;27.50;;;;;11.03;78.69;101498.56;5072790;27;45443;-70
2022/11/13 08:57:52;;;;;;;;;27.75;26.25;;;;;11.07;78.31;101501.03;5075414;27;45352;-63
2022/11/13 09:00:19;;;;;;;;;34.25;31.25;;;;;11.11;78.48;101491.13;5057643;27;45373;-62
2022/11/13 09:02:45;;;;;;;;;29.00;26.00;;;;;11.17;78.53;101481.03;5058002;27;45493;-60
2022/11/13 09:05:10;;;;;;;;;25.50;25.50;;;;;11.22;78.67;101479.06;5074895;27;46169;-56
2022/11/13 09:07:35;;;;;;;;;22.50;21.00;;;;;11.25;77.98;101487.84;5057361;28;45292;-59
2022/11/13 09:10:01;;;;;;;;;23.25;23.25;;;;;11.29;78.01;101484.09;5073533;27;45986;-62
2022/11/13 09:12:26;;;;;;;;;24.00;21.50;;;;;11.29;77.67;101473.44;5076071;28;45504;-60
2022/11/13 09:14:52;;;;;;;;;24.75;19.75;;;;;11.34;76.91;101482.13;5069583;27;46314;-61
2022/11/13 09:17:26;;;;;;;;;24.25;21.75;;;;;11.32;77.34;101474.16;5056832;28;45312;-59
2022/11/13 09:19:52;;;;;;;;;26.00;23.25;;;;;11.39;76.90;101480.09;5061008;27;45453;-62
2022/11/13 09:22:21;;;;;;;;;25.75;19.50;;;;;11.35;76.21;101467.88;5078091;28;45581;-61
2022/11/13 09:24:47;;;;;;;;;22.25;20.00;;;;;11.43;76.62;101471.03;5073000;27;45347;-62
2022/11/13 09:27:12;;;;;;;;;20.50;20.50;;;;;11.47;76.53;101473.50;5049826;28;45405;-63
2022/11/13 09:29:38;;;;;;;;;21.50;18.50;;;;;11.50;76.14;101469.81;5058643;27;45723;-61
2022/11/13 09:32:03;;;;;;;;;26.50;25.25;;;;;11.55;76.64;101475.78;5061605;27;45564;-60
2022/11/13 09:34:29;;;;;;;;;18.00;18.00;;;;;11.58;75.80;101464.97;5075155;27;46133;-58
2022/11/13 09:36:54;;;;;;;;;26.00;23.75;;;;;11.60;75.92;101449.81;5071432;27;45331;-62
2022/11/13 09:39:19;;;;;;;;;24.50;22.25;;;;;11.69;75.47;101460.03;5080647;27;45374;-65
2022/11/13 09:41:51;;;;;;;;;36.00;28.50;;;;;11.78;75.18;101461.41;5053852;28;45597;-68
2022/11/13 09:44:27;;;;;;;;;29.75;27.25;;;;;11.87;75.21;101460.16;5041151;28;47308;-66
2022/11/13 09:47:13;;;;;;;;;29.25;25.50;;;;;11.93;74.62;101459.84;5038257;28;45657;-64
2022/11/13 09:49:52;;;;;;;;;23.50;23.50;;;;;12.00;73.94;101462.16;5073227;27;45575;-59
2022/11/13 09:52:25;;;;;;;;;30.75;24.25;;;;;12.03;74.56;101450.47;5041243;28;45562;-57
2022/11/13 09:54:51;;;;;;;;;26.25;25.25;;;;;12.14;74.11;101461.47;5083451;27;45410;-60
2022/11/13 09:58:03;;;;;;;;;18.00;18.00;;;;;12.19;73.59;101455.91;5070248;27;45505;-61
2022/11/13 10:00:33;;;;;;;;;30.33;25.00;;;;;12.27;73.75;101443.06;5077141;27;45497;-62
2022/11/13 10:03:14;;;;;;;;;34.00;24.33;;;;;12.44;72.78;101452.91;5087967;27;45193;-63
2022/11/13 10:06:12;;;;;;;;;24.00;19.25;;;;;12.50;72.78;101450.81;5085830;27;45397;-71
2022/11/13 10:08:46;;;;;;;;;31.25;27.25;;;;;12.58;72.46;101447.72;5076181;27;45637;-63
2022/11/13 10:11:37;;;;;;;;;25.33;24.00;;;;;12.61;71.67;101445.75;5064853;27;45532;-65
2022/11/13 10:14:18;;;;;;;;;31.00;29.33;;;;;12.71;72.58;101440.81;5064163;28;45371;-62
2022/11/13 10:16:53;;;;;;;;;30.50;27.00;;;;;12.82;72.10;101450.94;5057332;28;46363;-59
2022/11/13 10:19:41;;;;;;;;;26.25;25.50;;;;;12.90;71.74;101438.09;5075257;28;45181;-61
2022/11/13 10:22:17;;;;;;;;;29.00;28.33;;;;;12.92;71.37;101423.69;5056829;28;45312;-68
2022/11/13 10:24:44;;;;;;;;;29.50;24.75;;;;;13.05;71.25;101420.38;5079425;27;45222;-65
2022/11/13 10:27:11;;;;;;;;;26.75;25.50;;;;;13.12;70.99;101422.63;5079280;27;46423;-64
2022/11/13 10:29:37;;;;;;;;;29.00;28.00;;;;;13.24;70.27;101419.34;5079117;27;45321;-60
2022/11/13 10:32:22;;;;;;;;;24.75;23.00;;;;;13.37;70.88;101410.66;5066036;27;45402;-60
2022/11/13 10:35:00;;;;;;;;;28.25;25.75;;;;;13.43;69.49;101407.66;5073311;27;45577;-60
2022/11/13 10:37:57;;;;;;;;;30.75;29.50;;;;;13.60;69.84;101406.72;5078961;27;46482;-59
2022/11/13 10:40:24;;;;;;;;;33.00;29.25;;;;;13.69;69.12;101412.44;5076271;28;45217;-62
2022/11/13 10:42:50;;;;;;;;;25.67;25.33;;;;;13.82;68.87;101412.59;5089120;27;45469;-65
2022/11/13 10:45:17;;;;;;;;;26.00;23.00;;;;;13.90;68.04;101405.00;5068564;27;45369;-66
2022/11/13 10:47:47;;;;;;;;;26.67;25.33;;;;;14.06;67.80;101405.84;5077391;27;46157;-70
2022/11/13 10:50:21;;;;;;;;;31.00;28.33;;;;;14.18;67.20;101399.75;5058682;28;45233;-69
2022/11/13 10:52:50;;;;;;;;;26.67;26.67;;;;;14.30;67.29;101400.00;5058710;28;45309;-60
2022/11/13 10:55:36;;;;;;;;;30.00;28.00;;;;;14.37;67.16;101390.69;5058920;28;45506;-67
2022/11/13 10:58:11;;;;;;;;;33.33;25.00;;;;;14.45;65.90;101385.75;5058099;28;45494;-73
2022/11/13 11:00:40;;;;;;;;;27.67;25.67;;;;;14.57;66.25;101378.81;5059499;28;45470;-64
2022/11/13 11:03:26;;;;;;;;;29.00;25.33;;;;;14.69;65.38;101384.28;5064717;27;45403;-61
2022/11/13 11:06:00;;;;;;;;;33.33;31.00;;;;;14.82;65.47;101386.22;5074015;27;45373;-64
2022/11/13 11:08:32;;;;;;;;;25.67;23.33;;;;;14.88;64.31;101365.28;5067003;28;46254;-64
2022/11/13 11:13:47;;;;;;;;;35.00;28.00;;;;;14.98;64.29;101353.06;5081243;27;45229;-65
2022/11/13 11:16:24;;;;;;;;;31.33;28.00;;;;;15.05;64.54;101364.22;5079838;28;45242;-60
2022/11/13 11:19:17;;;;;;;;;28.33;26.33;;;;;15.16;64.83;101348.34;5074101;27;46226;-58
2022/11/13 11:21:44;;;;;;;;;30.00;30.00;;;;;15.21;64.06;101337.31;5068223;27;45530;-60